<?xml version="1.0" encoding="UTF-8" standalone="no" ?>
<gpx xmlns="http://www.topografix.com/GPX/1/1" xmlns:xsi="http://www.w3.org/2001/XMLSchema-instance" xsi:schemaLocation="http://www.topografix.com/GPX/1/1 http://www.topografix.com/GPX/1/1/gpx.xsd" version="1.1" creator="VisuGPX - https://www.visugpx.com">
  <metadata>
    <name>Points de vue sur Najac et la vallée de l'Aveyron</name>
    <desc><![CDATA[Circuit de découverte de la vallée de l'Aveyron au pied de Najac]]></desc>
  </metadata>
  <trk>
    <name><![CDATA[Points de vue sur Najac et la vallée de l'Aveyron_2]]></name>
    <trkseg>
      <trkpt lat="44.22137" lon="1.96739">
        <ele>199.1</ele>
        <time>2019-05-11T12:24:04Z</time>
      </trkpt>
      <trkpt lat="44.22141" lon="1.96744">
        <ele>199.9</ele>
        <time>2019-05-11T12:24:10Z</time>
      </trkpt>
      <trkpt lat="44.22136" lon="1.96748">
        <ele>200</ele>
        <time>2019-05-11T12:24:15Z</time>
      </trkpt>
      <trkpt lat="44.22136" lon="1.96755">
        <ele>197.3</ele>
        <time>2019-05-11T12:24:26Z</time>
      </trkpt>
      <trkpt lat="44.22135" lon="1.96763">
        <ele>195.8</ele>
        <time>2019-05-11T12:24:34Z</time>
      </trkpt>
      <trkpt lat="44.22135" lon="1.9677">
        <ele>195.4</ele>
        <time>2019-05-11T12:24:38Z</time>
      </trkpt>
      <trkpt lat="44.22136" lon="1.96778">
        <ele>196.1</ele>
        <time>2019-05-11T12:24:42Z</time>
      </trkpt>
      <trkpt lat="44.22135" lon="1.96786">
        <ele>197.2</ele>
        <time>2019-05-11T12:24:45Z</time>
      </trkpt>
      <trkpt lat="44.22132" lon="1.96793">
        <ele>198.7</ele>
        <time>2019-05-11T12:24:50Z</time>
      </trkpt>
      <trkpt lat="44.22127" lon="1.96794">
        <ele>198</ele>
        <time>2019-05-11T12:24:56Z</time>
      </trkpt>
      <trkpt lat="44.22122" lon="1.96793">
        <ele>198.3</ele>
        <time>2019-05-11T12:25:00Z</time>
      </trkpt>
      <trkpt lat="44.22117" lon="1.96794">
        <ele>197.2</ele>
        <time>2019-05-11T12:25:05Z</time>
      </trkpt>
      <trkpt lat="44.22113" lon="1.96798">
        <ele>196.3</ele>
        <time>2019-05-11T12:25:09Z</time>
      </trkpt>
      <trkpt lat="44.22108" lon="1.96801">
        <ele>195</ele>
        <time>2019-05-11T12:25:12Z</time>
      </trkpt>
      <trkpt lat="44.22105" lon="1.96804">
        <ele>193</ele>
        <time>2019-05-11T12:25:19Z</time>
      </trkpt>
      <trkpt lat="44.221" lon="1.96807">
        <ele>192.4</ele>
        <time>2019-05-11T12:25:25Z</time>
      </trkpt>
      <trkpt lat="44.22095" lon="1.9681">
        <ele>192.4</ele>
        <time>2019-05-11T12:25:31Z</time>
      </trkpt>
      <trkpt lat="44.22092" lon="1.96815">
        <ele>195.3</ele>
        <time>2019-05-11T12:25:36Z</time>
      </trkpt>
      <trkpt lat="44.22092" lon="1.96822">
        <ele>196.1</ele>
        <time>2019-05-11T12:25:40Z</time>
      </trkpt>
      <trkpt lat="44.22092" lon="1.9683">
        <ele>195.9</ele>
        <time>2019-05-11T12:25:44Z</time>
      </trkpt>
      <trkpt lat="44.22092" lon="1.96837">
        <ele>196.4</ele>
        <time>2019-05-11T12:25:48Z</time>
      </trkpt>
      <trkpt lat="44.22092" lon="1.96843">
        <ele>197</ele>
        <time>2019-05-11T12:25:51Z</time>
      </trkpt>
      <trkpt lat="44.22092" lon="1.9685">
        <ele>198.1</ele>
        <time>2019-05-11T12:25:55Z</time>
      </trkpt>
      <trkpt lat="44.22094" lon="1.96857">
        <ele>199.3</ele>
        <time>2019-05-11T12:25:59Z</time>
      </trkpt>
      <trkpt lat="44.22093" lon="1.96863">
        <ele>200.7</ele>
        <time>2019-05-11T12:26:05Z</time>
      </trkpt>
      <trkpt lat="44.22097" lon="1.96867">
        <ele>200.5</ele>
        <time>2019-05-11T12:26:09Z</time>
      </trkpt>
      <trkpt lat="44.22093" lon="1.96872">
        <ele>201.1</ele>
        <time>2019-05-11T12:26:13Z</time>
      </trkpt>
      <trkpt lat="44.22091" lon="1.9688">
        <ele>200.8</ele>
        <time>2019-05-11T12:26:17Z</time>
      </trkpt>
      <trkpt lat="44.22087" lon="1.96885">
        <ele>200</ele>
        <time>2019-05-11T12:26:21Z</time>
      </trkpt>
      <trkpt lat="44.22083" lon="1.9689">
        <ele>199.9</ele>
        <time>2019-05-11T12:26:26Z</time>
      </trkpt>
      <trkpt lat="44.22078" lon="1.96892">
        <ele>200</ele>
        <time>2019-05-11T12:26:29Z</time>
      </trkpt>
      <trkpt lat="44.22073" lon="1.96891">
        <ele>199.3</ele>
        <time>2019-05-11T12:26:36Z</time>
      </trkpt>
      <trkpt lat="44.22068" lon="1.96892">
        <ele>198.6</ele>
        <time>2019-05-11T12:27:00Z</time>
      </trkpt>
      <trkpt lat="44.22064" lon="1.96892">
        <ele>197.3</ele>
        <time>2019-05-11T12:27:08Z</time>
      </trkpt>
      <trkpt lat="44.22059" lon="1.96892">
        <ele>197.2</ele>
        <time>2019-05-11T12:27:11Z</time>
      </trkpt>
      <trkpt lat="44.22054" lon="1.96891">
        <ele>197.2</ele>
        <time>2019-05-11T12:27:14Z</time>
      </trkpt>
      <trkpt lat="44.22047" lon="1.96893">
        <ele>197.9</ele>
        <time>2019-05-11T12:27:17Z</time>
      </trkpt>
      <trkpt lat="44.22042" lon="1.96894">
        <ele>198.2</ele>
        <time>2019-05-11T12:27:20Z</time>
      </trkpt>
      <trkpt lat="44.22037" lon="1.96895">
        <ele>199.3</ele>
        <time>2019-05-11T12:27:23Z</time>
      </trkpt>
      <trkpt lat="44.22033" lon="1.96898">
        <ele>200.5</ele>
        <time>2019-05-11T12:27:27Z</time>
      </trkpt>
      <trkpt lat="44.22021" lon="1.96904">
        <ele>202.3</ele>
        <time>2019-05-11T12:27:44Z</time>
      </trkpt>
      <trkpt lat="44.22017" lon="1.969">
        <ele>201.9</ele>
        <time>2019-05-11T12:27:46Z</time>
      </trkpt>
      <trkpt lat="44.22014" lon="1.96905">
        <ele>201.5</ele>
        <time>2019-05-11T12:28:04Z</time>
      </trkpt>
      <trkpt lat="44.22018" lon="1.96921">
        <ele>201.6</ele>
        <time>2019-05-11T12:28:16Z</time>
      </trkpt>
      <trkpt lat="44.22017" lon="1.9694">
        <ele>204</ele>
        <time>2019-05-11T12:28:29Z</time>
      </trkpt>
      <trkpt lat="44.22018" lon="1.96947">
        <ele>204.8</ele>
        <time>2019-05-11T12:28:33Z</time>
      </trkpt>
      <trkpt lat="44.22017" lon="1.96955">
        <ele>205.3</ele>
        <time>2019-05-11T12:28:38Z</time>
      </trkpt>
      <trkpt lat="44.22015" lon="1.96961">
        <ele>205</ele>
        <time>2019-05-11T12:28:43Z</time>
      </trkpt>
      <trkpt lat="44.22019" lon="1.96968">
        <ele>206</ele>
        <time>2019-05-11T12:28:47Z</time>
      </trkpt>
      <trkpt lat="44.22021" lon="1.96975">
        <ele>206.5</ele>
        <time>2019-05-11T12:28:51Z</time>
      </trkpt>
      <trkpt lat="44.22022" lon="1.96981">
        <ele>206.3</ele>
        <time>2019-05-11T12:28:56Z</time>
      </trkpt>
      <trkpt lat="44.22011" lon="1.97039">
        <ele>210.7</ele>
        <time>2019-05-11T12:29:39Z</time>
      </trkpt>
      <trkpt lat="44.2202" lon="1.9706">
        <ele>213.1</ele>
        <time>2019-05-11T12:29:53Z</time>
      </trkpt>
      <trkpt lat="44.22021" lon="1.97068">
        <ele>213.3</ele>
        <time>2019-05-11T12:29:57Z</time>
      </trkpt>
      <trkpt lat="44.22007" lon="1.97057">
        <ele>206.5</ele>
        <time>2019-05-11T12:31:01Z</time>
      </trkpt>
      <trkpt lat="44.22007" lon="1.9705">
        <ele>206.4</ele>
        <time>2019-05-11T12:31:03Z</time>
      </trkpt>
      <trkpt lat="44.22009" lon="1.97044">
        <ele>207</ele>
        <time>2019-05-11T12:31:05Z</time>
      </trkpt>
      <trkpt lat="44.22005" lon="1.97037">
        <ele>207.5</ele>
        <time>2019-05-11T12:31:08Z</time>
      </trkpt>
      <trkpt lat="44.22006" lon="1.97029">
        <ele>209.4</ele>
        <time>2019-05-11T12:31:11Z</time>
      </trkpt>
      <trkpt lat="44.22011" lon="1.97023">
        <ele>210.3</ele>
        <time>2019-05-11T12:31:13Z</time>
      </trkpt>
      <trkpt lat="44.22009" lon="1.97017">
        <ele>212.6</ele>
        <time>2019-05-11T12:31:18Z</time>
      </trkpt>
      <trkpt lat="44.22013" lon="1.97012">
        <ele>216</ele>
        <time>2019-05-11T12:31:24Z</time>
      </trkpt>
      <trkpt lat="44.22005" lon="1.97006">
        <ele>220</ele>
        <time>2019-05-11T12:31:53Z</time>
      </trkpt>
      <trkpt lat="44.22001" lon="1.97002">
        <ele>219.1</ele>
        <time>2019-05-11T12:31:55Z</time>
      </trkpt>
      <trkpt lat="44.22" lon="1.96996">
        <ele>218.8</ele>
        <time>2019-05-11T12:31:57Z</time>
      </trkpt>
      <trkpt lat="44.21999" lon="1.96988">
        <ele>219.6</ele>
        <time>2019-05-11T12:32:02Z</time>
      </trkpt>
      <trkpt lat="44.22" lon="1.96982">
        <ele>220.4</ele>
        <time>2019-05-11T12:32:05Z</time>
      </trkpt>
      <trkpt lat="44.21995" lon="1.96978">
        <ele>220.1</ele>
        <time>2019-05-11T12:32:07Z</time>
      </trkpt>
      <trkpt lat="44.2199" lon="1.96976">
        <ele>220.4</ele>
        <time>2019-05-11T12:32:09Z</time>
      </trkpt>
      <trkpt lat="44.21985" lon="1.96972">
        <ele>220.5</ele>
        <time>2019-05-11T12:32:12Z</time>
      </trkpt>
      <trkpt lat="44.21983" lon="1.96966">
        <ele>221.5</ele>
        <time>2019-05-11T12:32:19Z</time>
      </trkpt>
      <trkpt lat="44.21978" lon="1.96961">
        <ele>223.7</ele>
        <time>2019-05-11T12:32:26Z</time>
      </trkpt>
      <trkpt lat="44.21973" lon="1.96957">
        <ele>224.5</ele>
        <time>2019-05-11T12:32:31Z</time>
      </trkpt>
      <trkpt lat="44.21969" lon="1.96954">
        <ele>223.9</ele>
        <time>2019-05-11T12:32:35Z</time>
      </trkpt>
      <trkpt lat="44.21968" lon="1.96946">
        <ele>223.6</ele>
        <time>2019-05-11T12:32:42Z</time>
      </trkpt>
      <trkpt lat="44.21971" lon="1.96941">
        <ele>222.5</ele>
        <time>2019-05-11T12:32:49Z</time>
      </trkpt>
      <trkpt lat="44.21966" lon="1.96937">
        <ele>223.7</ele>
        <time>2019-05-11T12:33:01Z</time>
      </trkpt>
      <trkpt lat="44.21964" lon="1.9693">
        <ele>223.7</ele>
        <time>2019-05-11T12:33:05Z</time>
      </trkpt>
      <trkpt lat="44.21959" lon="1.96927">
        <ele>223.8</ele>
        <time>2019-05-11T12:33:11Z</time>
      </trkpt>
      <trkpt lat="44.21955" lon="1.96926">
        <ele>223.6</ele>
        <time>2019-05-11T12:33:16Z</time>
      </trkpt>
      <trkpt lat="44.2195" lon="1.96926">
        <ele>223.6</ele>
        <time>2019-05-11T12:33:21Z</time>
      </trkpt>
      <trkpt lat="44.21945" lon="1.96928">
        <ele>223.2</ele>
        <time>2019-05-11T12:33:25Z</time>
      </trkpt>
      <trkpt lat="44.2194" lon="1.96929">
        <ele>222.8</ele>
        <time>2019-05-11T12:33:30Z</time>
      </trkpt>
      <trkpt lat="44.21935" lon="1.96927">
        <ele>225.6</ele>
        <time>2019-05-11T12:33:42Z</time>
      </trkpt>
      <trkpt lat="44.21932" lon="1.96921">
        <ele>229.5</ele>
        <time>2019-05-11T12:33:49Z</time>
      </trkpt>
      <trkpt lat="44.21927" lon="1.96918">
        <ele>230.8</ele>
        <time>2019-05-11T12:33:54Z</time>
      </trkpt>
      <trkpt lat="44.21923" lon="1.96913">
        <ele>231.1</ele>
        <time>2019-05-11T12:34:04Z</time>
      </trkpt>
      <trkpt lat="44.21918" lon="1.96911">
        <ele>230.1</ele>
        <time>2019-05-11T12:34:10Z</time>
      </trkpt>
      <trkpt lat="44.21914" lon="1.96908">
        <ele>231.3</ele>
        <time>2019-05-11T12:34:15Z</time>
      </trkpt>
      <trkpt lat="44.21909" lon="1.96907">
        <ele>232.2</ele>
        <time>2019-05-11T12:34:22Z</time>
      </trkpt>
      <trkpt lat="44.21904" lon="1.96906">
        <ele>232.7</ele>
        <time>2019-05-11T12:34:27Z</time>
      </trkpt>
      <trkpt lat="44.219" lon="1.96904">
        <ele>234.5</ele>
        <time>2019-05-11T12:34:35Z</time>
      </trkpt>
      <trkpt lat="44.21894" lon="1.96904">
        <ele>235.5</ele>
        <time>2019-05-11T12:34:42Z</time>
      </trkpt>
      <trkpt lat="44.21889" lon="1.96905">
        <ele>237</ele>
        <time>2019-05-11T12:34:47Z</time>
      </trkpt>
      <trkpt lat="44.21886" lon="1.969">
        <ele>239.7</ele>
        <time>2019-05-11T12:35:02Z</time>
      </trkpt>
      <trkpt lat="44.2188" lon="1.96898">
        <ele>239.8</ele>
        <time>2019-05-11T12:35:26Z</time>
      </trkpt>
      <trkpt lat="44.21875" lon="1.96897">
        <ele>241.3</ele>
        <time>2019-05-11T12:35:29Z</time>
      </trkpt>
      <trkpt lat="44.2187" lon="1.96893">
        <ele>243.4</ele>
        <time>2019-05-11T12:35:33Z</time>
      </trkpt>
      <trkpt lat="44.21865" lon="1.96891">
        <ele>245.1</ele>
        <time>2019-05-11T12:35:36Z</time>
      </trkpt>
      <trkpt lat="44.21862" lon="1.96885">
        <ele>248.3</ele>
        <time>2019-05-11T12:35:42Z</time>
      </trkpt>
      <trkpt lat="44.21859" lon="1.96879">
        <ele>251.5</ele>
        <time>2019-05-11T12:35:48Z</time>
      </trkpt>
      <trkpt lat="44.21854" lon="1.96877">
        <ele>252.7</ele>
        <time>2019-05-11T12:35:52Z</time>
      </trkpt>
      <trkpt lat="44.21857" lon="1.96872">
        <ele>253.4</ele>
        <time>2019-05-11T12:35:57Z</time>
      </trkpt>
      <trkpt lat="44.21857" lon="1.96865">
        <ele>253.6</ele>
        <time>2019-05-11T12:36:02Z</time>
      </trkpt>
      <trkpt lat="44.21852" lon="1.96864">
        <ele>253.3</ele>
        <time>2019-05-11T12:36:09Z</time>
      </trkpt>
      <trkpt lat="44.21848" lon="1.96867">
        <ele>253.7</ele>
        <time>2019-05-11T12:36:15Z</time>
      </trkpt>
      <trkpt lat="44.21843" lon="1.96869">
        <ele>255.5</ele>
        <time>2019-05-11T12:36:22Z</time>
      </trkpt>
      <trkpt lat="44.21838" lon="1.96871">
        <ele>257.2</ele>
        <time>2019-05-11T12:36:29Z</time>
      </trkpt>
      <trkpt lat="44.21833" lon="1.96872">
        <ele>258.1</ele>
        <time>2019-05-11T12:36:33Z</time>
      </trkpt>
      <trkpt lat="44.21826" lon="1.96872">
        <ele>259.9</ele>
        <time>2019-05-11T12:36:41Z</time>
      </trkpt>
      <trkpt lat="44.21822" lon="1.96871">
        <ele>261.5</ele>
        <time>2019-05-11T12:36:49Z</time>
      </trkpt>
      <trkpt lat="44.21817" lon="1.96873">
        <ele>264.8</ele>
        <time>2019-05-11T12:37:28Z</time>
      </trkpt>
      <trkpt lat="44.21812" lon="1.96874">
        <ele>263.7</ele>
        <time>2019-05-11T12:37:33Z</time>
      </trkpt>
      <trkpt lat="44.21807" lon="1.96873">
        <ele>264.5</ele>
        <time>2019-05-11T12:37:37Z</time>
      </trkpt>
      <trkpt lat="44.21802" lon="1.96874">
        <ele>265.3</ele>
        <time>2019-05-11T12:37:42Z</time>
      </trkpt>
      <trkpt lat="44.21797" lon="1.96873">
        <ele>266.5</ele>
        <time>2019-05-11T12:37:47Z</time>
      </trkpt>
      <trkpt lat="44.21792" lon="1.96876">
        <ele>267.6</ele>
        <time>2019-05-11T12:37:52Z</time>
      </trkpt>
      <trkpt lat="44.21788" lon="1.96878">
        <ele>268.3</ele>
        <time>2019-05-11T12:37:58Z</time>
      </trkpt>
      <trkpt lat="44.21784" lon="1.96883">
        <ele>268.7</ele>
        <time>2019-05-11T12:38:06Z</time>
      </trkpt>
      <trkpt lat="44.21765" lon="1.96909">
        <ele>271.4</ele>
        <time>2019-05-11T12:38:23Z</time>
      </trkpt>
      <trkpt lat="44.2177" lon="1.96914">
        <ele>275.7</ele>
        <time>2019-05-11T12:38:33Z</time>
      </trkpt>
      <trkpt lat="44.21774" lon="1.9692">
        <ele>278.7</ele>
        <time>2019-05-11T12:40:13Z</time>
      </trkpt>
      <trkpt lat="44.2177" lon="1.96926">
        <ele>276.9</ele>
        <time>2019-05-11T12:44:30Z</time>
      </trkpt>
      <trkpt lat="44.21767" lon="1.96933">
        <ele>276.6</ele>
        <time>2019-05-11T12:44:34Z</time>
      </trkpt>
      <trkpt lat="44.21765" lon="1.96938">
        <ele>276.5</ele>
        <time>2019-05-11T12:44:38Z</time>
      </trkpt>
      <trkpt lat="44.21765" lon="1.96945">
        <ele>276.3</ele>
        <time>2019-05-11T12:44:42Z</time>
      </trkpt>
      <trkpt lat="44.21762" lon="1.96951">
        <ele>277.2</ele>
        <time>2019-05-11T12:44:47Z</time>
      </trkpt>
      <trkpt lat="44.21757" lon="1.96955">
        <ele>277.6</ele>
        <time>2019-05-11T12:44:50Z</time>
      </trkpt>
      <trkpt lat="44.21754" lon="1.96959">
        <ele>275.4</ele>
        <time>2019-05-11T12:45:00Z</time>
      </trkpt>
      <trkpt lat="44.21754" lon="1.96964">
        <ele>280</ele>
        <time>2019-05-11T12:45:13Z</time>
      </trkpt>
      <trkpt lat="44.21749" lon="1.96968">
        <ele>278.4</ele>
        <time>2019-05-11T12:45:18Z</time>
      </trkpt>
      <trkpt lat="44.21746" lon="1.96974">
        <ele>277.8</ele>
        <time>2019-05-11T12:45:22Z</time>
      </trkpt>
      <trkpt lat="44.21744" lon="1.96979">
        <ele>278.3</ele>
        <time>2019-05-11T12:45:27Z</time>
      </trkpt>
      <trkpt lat="44.21742" lon="1.96985">
        <ele>280.5</ele>
        <time>2019-05-11T12:45:35Z</time>
      </trkpt>
      <trkpt lat="44.21743" lon="1.97001">
        <ele>285.9</ele>
        <time>2019-05-11T12:46:31Z</time>
      </trkpt>
      <trkpt lat="44.21745" lon="1.97006">
        <ele>296</ele>
        <time>2019-05-11T12:47:10Z</time>
      </trkpt>
      <trkpt lat="44.21749" lon="1.97016">
        <ele>294.4</ele>
        <time>2019-05-11T12:47:19Z</time>
      </trkpt>
      <trkpt lat="44.21751" lon="1.97022">
        <ele>295.4</ele>
        <time>2019-05-11T12:47:26Z</time>
      </trkpt>
      <trkpt lat="44.21753" lon="1.97029">
        <ele>294.9</ele>
        <time>2019-05-11T12:47:32Z</time>
      </trkpt>
      <trkpt lat="44.2176" lon="1.97037">
        <ele>294.2</ele>
        <time>2019-05-11T12:47:40Z</time>
      </trkpt>
      <trkpt lat="44.21761" lon="1.97044">
        <ele>295.6</ele>
        <time>2019-05-11T12:47:44Z</time>
      </trkpt>
      <trkpt lat="44.21763" lon="1.97049">
        <ele>297.5</ele>
        <time>2019-05-11T12:47:52Z</time>
      </trkpt>
      <trkpt lat="44.21766" lon="1.97055">
        <ele>298.5</ele>
        <time>2019-05-11T12:47:58Z</time>
      </trkpt>
      <trkpt lat="44.2177" lon="1.9706">
        <ele>298.7</ele>
        <time>2019-05-11T12:48:05Z</time>
      </trkpt>
      <trkpt lat="44.21766" lon="1.97077">
        <ele>303.5</ele>
        <time>2019-05-11T12:48:24Z</time>
      </trkpt>
      <trkpt lat="44.21769" lon="1.97074">
        <ele>306.9</ele>
        <time>2019-05-11T12:49:30Z</time>
      </trkpt>
      <trkpt lat="44.21769" lon="1.97068">
        <ele>304.2</ele>
        <time>2019-05-11T12:49:42Z</time>
      </trkpt>
    </trkseg>
  </trk>
</gpx>